Time;durP1;ratioP1;P1;durP2;ratioP2;P2;SDS_P1;SDS_P2;PMS_P1;PMS_P2;Temp;Humidity;BMP_temperature;BMP_pressure;BME280_temperature;BME280_humidity;BME280_pressure;Samples;Min_cycle;Max_cycle;Signal;HPM_P1;HPM_P2
2022/07/07 00:02:25;;;;;;;8.80;4.15;;;16.50;99.90;;;;;;5026190;27;20041;-75
2022/07/07 00:04:51;;;;;;;9.88;4.35;;;16.50;99.90;;;;;;5021784;27;21333;-75
2022/07/07 00:07:17;;;;;;;8.75;4.22;;;16.50;99.90;;;;;;5010715;28;20048;-75
2022/07/07 00:09:43;;;;;;;7.53;3.92;;;16.50;99.90;;;;;;5051494;27;20402;-74
2022/07/07 00:12:09;;;;;;;10.40;3.80;;;16.50;99.90;;;;;;5025639;27;20041;-75
2022/07/07 00:14:35;;;;;;;7.63;4.20;;;16.50;99.90;;;;;;5042687;27;20068;-73
2022/07/07 00:17:01;;;;;;;10.63;3.70;;;16.50;99.90;;;;;;5037296;27;20068;-74
2022/07/07 00:19:27;;;;;;;13.73;4.22;;;16.50;99.90;;;;;;5021440;28;20053;-74
2022/07/07 00:21:56;;;;;;;8.18;3.60;;;16.50;99.90;;;;;;5020185;28;20072;-73
2022/07/07 00:24:21;;;;;;;13.65;3.80;;;16.50;99.90;;;;;;5037881;27;20045;-75
2022/07/07 00:26:47;;;;;;;7.55;4.07;;;16.50;99.90;;;;;;5003328;27;20390;-75
2022/07/07 00:29:13;;;;;;;10.57;3.92;;;16.50;99.90;;;;;;5038400;27;20056;-74
2022/07/07 00:31:39;;;;;;;9.65;3.33;;;16.50;99.90;;;;;;5023201;27;20040;-75
2022/07/07 00:34:04;;;;;;;8.65;4.15;;;16.50;99.90;;;;;;5026145;27;20051;-73
2022/07/07 00:36:30;;;;;;;7.75;3.80;;;16.50;99.90;;;;;;5021096;27;20076;-73
2022/07/07 00:38:56;;;;;;;14.43;3.88;;;16.50;99.90;;;;;;5029296;27;20488;-73
2022/07/07 00:41:25;;;;;;;8.07;3.45;;;16.50;99.90;;;;;;5019150;27;20075;-72
2022/07/07 00:43:50;;;;;;;10.15;3.85;;;16.50;99.90;;;;;;5019469;28;20072;-73
2022/07/07 00:46:17;;;;;;;7.70;2.78;;;16.50;99.90;;;;;;5051564;27;20564;-74
2022/07/07 00:48:43;;;;;;;9.02;2.63;;;16.40;99.90;;;;;;5018104;28;20513;-73
2022/07/07 00:51:12;;;;;;;8.77;2.45;;;16.30;99.90;;;;;;5033506;27;20065;-73
2022/07/07 00:53:39;;;;;;;5.15;2.10;;;16.40;99.90;;;;;;5037697;28;20405;-73
2022/07/07 00:56:05;;;;;;;5.82;1.95;;;16.30;99.90;;;;;;5017539;28;20045;-73
2022/07/07 00:58:33;;;;;;;9.40;2.15;;;16.30;99.90;;;;;;5037116;27;20153;-72
2022/07/07 01:01:00;;;;;;;6.43;2.50;;;16.30;99.90;;;;;;5026096;28;20048;-72
2022/07/07 01:03:26;;;;;;;9.23;2.70;;;16.30;99.90;;;;;;5056923;27;20382;-73
2022/07/07 01:05:53;;;;;;;7.63;2.35;;;16.20;99.90;;;;;;5032482;27;20041;-72
2022/07/07 01:08:19;;;;;;;6.90;2.33;;;16.20;99.90;;;;;;5033145;27;20033;-72
2022/07/07 01:10:45;;;;;;;7.78;2.45;;;16.20;99.90;;;;;;5034011;28;20037;-71
2022/07/07 01:13:12;;;;;;;8.57;2.72;;;16.20;99.90;;;;;;5017512;28;20078;-71
2022/07/07 01:15:38;;;;;;;10.43;2.50;;;16.20;99.90;;;;;;5020588;28;20436;-72
2022/07/07 01:18:06;;;;;;;7.72;2.25;;;16.20;99.90;;;;;;5007711;28;20073;-72
2022/07/07 01:20:33;;;;;;;9.52;3.08;;;16.10;99.90;;;;;;5003037;28;20051;-71
2022/07/07 01:22:59;;;;;;;12.05;2.95;;;16.20;99.90;;;;;;5024417;28;20069;-72
2022/07/07 01:25:24;;;;;;;9.55;2.65;;;16.10;99.90;;;;;;5020724;28;20056;-73
2022/07/07 01:27:50;;;;;;;10.40;2.78;;;16.10;99.90;;;;;;5024384;28;20046;-73
2022/07/07 01:30:17;;;;;;;7.57;2.50;;;16.10;99.90;;;;;;5019862;28;20041;-72
2022/07/07 01:32:43;;;;;;;8.05;2.78;;;16.20;99.90;;;;;;5022107;28;20075;-72
2022/07/07 01:35:10;;;;;;;11.38;2.92;;;16.10;99.90;;;;;;5035453;28;20099;-71
2022/07/07 01:37:36;;;;;;;8.88;2.72;;;16.10;99.90;;;;;;5023256;28;20041;-72
2022/07/07 01:40:02;;;;;;;8.98;2.97;;;16.10;99.90;;;;;;5020621;28;20042;-72
2022/07/07 01:42:28;;;;;;;11.07;2.53;;;16.10;99.90;;;;;;5025147;28;20041;-73
2022/07/07 01:44:54;;;;;;;13.07;3.13;;;16.10;99.90;;;;;;5025790;28;20045;-73
2022/07/07 01:47:21;;;;;;;10.63;3.00;;;16.10;99.90;;;;;;5027220;28;20435;-73
2022/07/07 01:49:47;;;;;;;13.48;2.85;;;16.10;99.90;;;;;;5038738;27;20097;-72
2022/07/07 01:52:13;;;;;;;12.30;3.00;;;16.10;99.90;;;;;;5019765;28;20049;-71
2022/07/07 01:54:39;;;;;;;12.63;3.47;;;16.10;99.90;;;;;;5057428;28;20113;-72
2022/07/07 01:57:06;;;;;;;11.45;3.40;;;16.10;99.90;;;;;;5022522;28;20047;-73
2022/07/07 01:59:32;;;;;;;11.85;3.28;;;16.10;99.90;;;;;;5025237;27;20050;-72
2022/07/07 02:01:58;;;;;;;12.55;2.90;;;16.00;99.90;;;;;;5022591;28;20049;-72
2022/07/07 02:04:24;;;;;;;10.13;3.33;;;16.10;99.90;;;;;;5023348;28;20386;-73
2022/07/07 02:06:49;;;;;;;12.07;3.28;;;16.10;99.90;;;;;;5022496;28;20045;-72
2022/07/07 02:09:15;;;;;;;13.18;4.20;;;16.10;99.90;;;;;;5030330;27;20048;-73
2022/07/07 02:11:41;;;;;;;12.55;2.72;;;16.20;99.90;;;;;;5023210;28;20446;-73
2022/07/07 02:14:07;;;;;;;11.60;2.72;;;16.10;99.90;;;;;;5028093;28;20160;-74
2022/07/07 02:16:33;;;;;;;12.63;2.70;;;16.10;99.90;;;;;;5005641;28;20124;-73
2022/07/07 02:19:02;;;;;;;10.55;2.80;;;16.10;99.90;;;;;;5017721;28;20058;-73
2022/07/07 02:21:28;;;;;;;11.65;2.75;;;16.10;99.90;;;;;;5015345;28;20033;-71
2022/07/07 02:23:55;;;;;;;11.88;2.40;;;16.10;99.90;;;;;;5006472;28;20044;-72
2022/07/07 02:26:21;;;;;;;7.20;1.75;;;16.10;99.90;;;;;;5003848;28;20422;-72
2022/07/07 02:28:48;;;;;;;14.52;2.10;;;16.10;99.90;;;;;;5003817;28;20417;-73
2022/07/07 02:31:14;;;;;;;10.48;2.35;;;16.00;99.90;;;;;;5036384;27;20037;-73
2022/07/07 02:33:40;;;;;;;10.50;2.00;;;16.10;99.90;;;;;;5015014;28;20045;-72
2022/07/07 02:36:07;;;;;;;8.32;1.80;;;16.00;99.90;;;;;;5021209;28;20046;-72
2022/07/07 02:38:35;;;;;;;10.38;2.20;;;16.00;99.90;;;;;;5036112;27;20410;-72
2022/07/07 02:41:02;;;;;;;12.38;2.38;;;16.00;99.90;;;;;;4983852;28;20049;-72
2022/07/07 02:43:28;;;;;;;10.30;1.67;;;16.00;99.90;;;;;;5003066;28;20497;-72
2022/07/07 02:45:54;;;;;;;10.10;1.95;;;16.00;99.90;;;;;;5006297;28;20041;-73
2022/07/07 02:48:22;;;;;;;11.48;1.98;;;16.00;99.90;;;;;;5005236;28;20101;-73
2022/07/07 02:50:48;;;;;;;9.43;1.73;;;16.00;99.90;;;;;;5003423;28;20050;-72
2022/07/07 02:53:15;;;;;;;10.50;2.50;;;15.90;99.90;;;;;;5002385;28;20049;-73
2022/07/07 02:55:42;;;;;;;12.82;2.50;;;15.90;99.90;;;;;;5007115;28;20417;-73
2022/07/07 02:58:09;;;;;;;13.38;2.28;;;16.00;99.90;;;;;;5008522;28;20049;-73
2022/07/07 03:00:36;;;;;;;10.65;2.17;;;15.90;99.90;;;;;;5009627;28;20053;-73
2022/07/07 03:03:04;;;;;;;12.02;1.90;;;15.90;99.90;;;;;;5007836;28;20060;-73
2022/07/07 03:05:30;;;;;;;11.48;2.78;;;15.90;99.90;;;;;;5009756;28;20042;-73
2022/07/07 03:07:56;;;;;;;12.02;2.40;;;16.00;99.90;;;;;;4989313;28;20060;-73
2022/07/07 03:10:22;;;;;;;14.35;2.45;;;15.80;99.90;;;;;;4992300;28;20037;-73
2022/07/07 03:12:49;;;;;;;12.30;2.17;;;15.90;99.90;;;;;;5009439;28;20045;-73
2022/07/07 03:15:14;;;;;;;16.92;2.92;;;15.80;99.90;;;;;;5020672;28;20054;-73
2022/07/07 03:17:42;;;;;;;14.10;2.78;;;15.80;99.90;;;;;;5030085;27;20051;-72
2022/07/07 03:20:10;;;;;;;13.35;2.38;;;15.80;99.90;;;;;;5024033;27;20641;-72
2022/07/07 03:22:35;;;;;;;15.10;2.75;;;15.90;99.90;;;;;;5023982;28;20057;-72
2022/07/07 03:25:01;;;;;;;8.82;2.58;;;15.80;99.90;;;;;;5006527;28;20053;-73
2022/07/07 03:27:27;;;;;;;13.25;2.00;;;15.80;99.90;;;;;;5021129;27;20052;-72
2022/07/07 03:29:55;;;;;;;10.00;2.05;;;15.70;99.90;;;;;;5022975;28;20058;-72
2022/07/07 03:32:21;;;;;;;11.60;1.60;;;15.70;99.90;;;;;;5022965;28;20428;-73
2022/07/07 03:34:47;;;;;;;12.93;2.17;;;15.70;99.90;;;;;;5025976;28;20055;-72
2022/07/07 03:37:13;;;;;;;12.75;1.90;;;15.70;99.90;;;;;;5005541;28;20706;-73
2022/07/07 03:39:38;;;;;;;11.60;1.60;;;15.70;99.90;;;;;;5023183;28;20052;-73
2022/07/07 03:42:04;;;;;;;11.05;1.92;;;15.60;99.90;;;;;;5021666;28;20041;-72
2022/07/07 03:44:30;;;;;;;10.25;1.85;;;15.70;99.90;;;;;;5020149;28;20471;-73
2022/07/07 03:46:56;;;;;;;8.75;1.27;;;15.60;99.90;;;;;;5022625;28;20045;-72
2022/07/07 03:49:21;;;;;;;9.88;1.45;;;15.60;99.90;;;;;;5012148;28;20042;-73
2022/07/07 03:51:47;;;;;;;11.15;1.90;;;15.60;99.90;;;;;;5013637;27;20052;-72
2022/07/07 03:54:13;;;;;;;10.82;1.67;;;15.60;99.90;;;;;;5002448;28;20037;-72
2022/07/07 03:56:39;;;;;;;8.02;1.60;;;15.60;99.90;;;;;;5020296;28;20043;-74
2022/07/07 03:59:05;;;;;;;11.25;1.73;;;15.50;99.90;;;;;;5019756;28;20056;-71
2022/07/07 04:01:31;;;;;;;12.80;1.50;;;15.50;99.90;;;;;;5018784;27;20559;-71
2022/07/07 04:03:57;;;;;;;9.95;1.80;;;15.50;99.90;;;;;;5027192;27;20037;-72
2022/07/07 04:06:23;;;;;;;9.77;1.70;;;15.50;99.90;;;;;;5023823;28;20124;-72
2022/07/07 04:08:49;;;;;;;12.70;2.00;;;15.40;99.90;;;;;;5027277;28;20075;-72
2022/07/07 04:11:16;;;;;;;9.93;1.50;;;15.40;99.90;;;;;;5028856;27;20051;-71
2022/07/07 04:13:42;;;;;;;11.85;1.73;;;15.30;99.90;;;;;;5040459;27;20053;-72
2022/07/07 04:16:08;;;;;;;10.55;1.73;;;15.30;99.90;;;;;;5047271;27;20462;-71
2022/07/07 04:18:34;;;;;;;9.35;1.70;;;15.20;99.90;;;;;;5054062;27;20136;-71
2022/07/07 04:21:01;;;;;;;16.80;2.15;;;15.20;99.90;;;;;;5076237;27;20573;-71
2022/07/07 04:23:27;;;;;;;8.00;1.65;;;15.20;99.90;;;;;;5007249;28;20044;-70
2022/07/07 04:25:55;;;;;;;10.82;1.92;;;15.10;99.90;;;;;;5046572;27;20467;-70
2022/07/07 04:28:21;;;;;;;11.45;2.25;;;15.20;99.90;;;;;;5025815;28;20061;-70
2022/07/07 04:30:47;;;;;;;8.35;1.63;;;15.20;99.90;;;;;;5010148;28;20143;-70
2022/07/07 04:33:13;;;;;;;9.18;1.48;;;15.30;99.90;;;;;;5026192;27;20045;-72
2022/07/07 04:35:38;;;;;;;8.95;1.80;;;15.20;99.90;;;;;;5029732;27;20071;-71
2022/07/07 04:38:05;;;;;;;8.48;1.45;;;15.20;99.90;;;;;;5035759;27;20037;-72
2022/07/07 04:40:30;;;;;;;14.05;1.77;;;15.20;99.90;;;;;;5057388;27;20052;-72
2022/07/07 04:42:56;;;;;;;12.68;1.50;;;15.20;99.90;;;;;;5016776;28;20469;-72
2022/07/07 04:45:22;;;;;;;11.68;1.58;;;15.20;99.90;;;;;;5011024;28;20045;-72
2022/07/07 04:47:48;;;;;;;8.05;1.67;;;15.20;99.90;;;;;;5045507;27;20057;-73
2022/07/07 04:50:14;;;;;;;10.27;1.70;;;15.30;99.90;;;;;;5056810;27;20865;-72
2022/07/07 04:52:40;;;;;;;12.80;1.60;;;15.30;99.90;;;;;;5056110;27;20041;-72
2022/07/07 04:55:07;;;;;;;7.57;1.35;;;15.30;99.90;;;;;;5030561;28;20394;-72
2022/07/07 04:57:33;;;;;;;13.63;1.70;;;15.30;99.90;;;;;;5042038;28;20468;-71
2022/07/07 04:59:59;;;;;;;11.20;2.00;;;15.30;99.90;;;;;;5029514;28;20124;-72
2022/07/07 05:02:25;;;;;;;10.80;1.50;;;15.30;99.90;;;;;;5013612;27;20047;-72
2022/07/07 05:04:51;;;;;;;13.10;1.92;;;15.30;99.90;;;;;;5043657;27;20065;-72
2022/07/07 05:07:19;;;;;;;11.15;2.00;;;15.30;99.90;;;;;;5002776;28;20726;-72
2022/07/07 05:09:46;;;;;;;12.80;1.73;;;15.30;99.90;;;;;;5023700;28;20157;-72
2022/07/07 05:12:11;;;;;;;15.55;1.85;;;15.30;99.90;;;;;;5002865;28;20618;-72
2022/07/07 05:14:37;;;;;;;12.45;1.98;;;15.30;99.90;;;;;;5040908;27;20041;-71
2022/07/07 05:17:03;;;;;;;12.55;2.53;;;15.30;99.90;;;;;;5042991;27;20043;-72
2022/07/07 05:19:29;;;;;;;10.32;1.83;;;15.30;99.90;;;;;;5044928;27;20080;-73
2022/07/07 05:21:55;;;;;;;8.38;1.88;;;15.30;99.90;;;;;;5012256;27;20483;-72
2022/07/07 05:24:21;;;;;;;9.77;1.85;;;15.30;99.90;;;;;;5013608;27;20097;-73
2022/07/07 05:26:47;;;;;;;9.75;1.73;;;15.30;99.90;;;;;;5008887;27;20128;-72
2022/07/07 05:29:13;;;;;;;10.57;2.08;;;15.30;99.90;;;;;;5008289;28;20098;-72
2022/07/07 05:31:39;;;;;;;12.63;2.10;;;15.30;99.90;;;;;;5023095;28;20057;-72
2022/07/07 05:34:05;;;;;;;10.38;1.95;;;15.30;99.90;;;;;;5023051;28;20041;-72
2022/07/07 05:36:33;;;;;;;12.48;2.08;;;15.30;99.90;;;;;;5042998;27;20064;-72
2022/07/07 05:39:00;;;;;;;13.95;2.10;;;15.30;99.90;;;;;;5024341;28;20048;-72
2022/07/07 05:41:26;;;;;;;16.27;2.65;;;15.30;99.90;;;;;;5061161;27;20072;-71
2022/07/07 05:43:51;;;;;;;11.30;1.80;;;15.20;99.90;;;;;;5057024;27;20059;-71
2022/07/07 05:46:17;;;;;;;13.60;1.92;;;15.30;99.90;;;;;;5026626;27;20041;-72
2022/07/07 05:48:43;;;;;;;14.93;2.50;;;15.30;99.90;;;;;;5018040;28;20048;-71
2022/07/07 05:51:09;;;;;;;13.52;2.00;;;15.30;99.90;;;;;;5018134;28;20041;-71
2022/07/07 05:53:35;;;;;;;10.70;1.80;;;15.40;99.90;;;;;;5029779;28;20052;-72
2022/07/07 05:56:00;;;;;;;10.43;1.98;;;15.40;99.90;;;;;;5026582;27;20045;-71
2022/07/07 05:58:26;;;;;;;9.85;2.08;;;15.40;99.90;;;;;;4996959;28;20048;-72
2022/07/07 06:00:55;;;;;;;11.55;3.03;;;15.50;99.90;;;;;;5008017;27;20184;-72
2022/07/07 06:03:21;;;;;;;10.48;2.55;;;15.60;99.90;;;;;;5023963;27;20045;-71
2022/07/07 06:05:47;;;;;;;12.48;2.33;;;15.70;99.90;;;;;;5014253;28;20060;-71
2022/07/07 06:08:13;;;;;;;12.45;2.00;;;15.70;99.90;;;;;;5016255;27;20147;-72
2022/07/07 06:10:39;;;;;;;9.60;1.80;;;15.80;99.90;;;;;;5002075;28;20049;-71
2022/07/07 06:13:05;;;;;;;10.98;2.38;;;15.80;99.90;;;;;;5023988;27;20488;-71
2022/07/07 06:15:33;;;;;;;12.95;2.35;;;15.80;99.90;;;;;;5024066;27;20919;-71
2022/07/07 06:18:00;;;;;;;7.25;1.35;;;15.90;99.90;;;;;;5045340;27;20053;-71
2022/07/07 06:20:26;;;;;;;6.45;1.30;;;15.90;99.90;;;;;;5048936;27;20044;-71
2022/07/07 06:22:53;;;;;;;6.65;1.73;;;15.80;99.90;;;;;;5052890;27;20473;-72
2022/07/07 06:25:20;;;;;;;4.13;0.80;;;15.90;99.90;;;;;;5041545;27;20120;-70
2022/07/07 06:27:45;;;;;;;4.43;0.80;;;16.10;99.90;;;;;;5034776;27;20048;-71
2022/07/07 06:30:11;;;;;;;6.10;1.05;;;16.30;99.90;;;;;;5048321;27;20045;-70
2022/07/07 06:32:37;;;;;;;5.85;1.35;;;16.50;99.90;;;;;;5019624;28;20060;-71
2022/07/07 06:35:04;;;;;;;8.60;1.85;;;16.50;99.90;;;;;;5021838;27;20136;-71
2022/07/07 06:37:30;;;;;;;8.15;1.25;;;16.60;99.90;;;;;;5015588;27;20483;-72
2022/07/07 06:39:55;;;;;;;5.10;1.23;;;16.70;99.90;;;;;;5003410;28;20059;-71
2022/07/07 06:42:21;;;;;;;6.45;1.00;;;16.70;99.90;;;;;;5021948;27;20124;-71
2022/07/07 06:44:47;;;;;;;7.50;1.23;;;16.80;99.90;;;;;;5037351;28;20489;-71
2022/07/07 06:47:13;;;;;;;6.97;1.63;;;16.80;99.90;;;;;;5024878;27;20044;-70
2022/07/07 06:49:38;;;;;;;8.98;1.15;;;16.80;99.90;;;;;;5040363;27;20044;-70
2022/07/07 06:52:04;;;;;;;10.00;1.60;;;16.70;99.90;;;;;;5023354;27;20032;-70
2022/07/07 06:54:30;;;;;;;6.80;1.10;;;16.70;99.90;;;;;;5039742;27;20041;-70
2022/07/07 06:56:56;;;;;;;8.18;1.20;;;16.70;99.90;;;;;;5028409;27;20556;-70
2022/07/07 06:59:21;;;;;;;7.38;1.15;;;17.00;99.90;;;;;;5054111;28;20041;-70
2022/07/07 07:01:47;;;;;;;11.18;1.50;;;17.10;99.90;;;;;;5038282;27;20056;-70
2022/07/07 07:04:13;;;;;;;6.18;1.23;;;17.20;99.90;;;;;;5008629;28;20048;-70
2022/07/07 07:06:41;;;;;;;11.57;1.45;;;17.10;99.90;;;;;;5045358;27;20053;-70
2022/07/07 07:09:06;;;;;;;10.60;1.55;;;17.00;99.90;;;;;;5022683;28;20523;-70
2022/07/07 07:11:32;;;;;;;7.80;1.20;;;16.90;99.90;;;;;;5044894;27;20049;-71
2022/07/07 07:14:01;;;;;;;5.72;0.90;;;16.80;99.90;;;;;;5038776;28;20576;-70
2022/07/07 07:16:28;;;;;;;9.07;1.20;;;16.80;99.90;;;;;;5027117;27;20470;-72
2022/07/07 07:18:54;;;;;;;6.95;1.02;;;16.80;99.90;;;;;;5051097;27;20132;-71
2022/07/07 07:21:19;;;;;;;6.60;1.40;;;17.10;99.90;;;;;;5018108;27;20393;-72
2022/07/07 07:23:45;;;;;;;7.70;1.00;;;17.50;99.90;;;;;;5043010;27;20046;-71
2022/07/07 07:26:11;;;;;;;7.53;1.15;;;17.60;99.90;;;;;;5023835;27;20037;-72
2022/07/07 07:28:37;;;;;;;8.20;1.20;;;17.60;99.90;;;;;;5037707;27;20078;-70
2022/07/07 07:31:03;;;;;;;7.70;1.13;;;17.50;99.90;;;;;;5023675;28;20076;-70
2022/07/07 07:33:29;;;;;;;6.88;1.20;;;17.40;99.90;;;;;;5020916;28;20041;-70
2022/07/07 07:35:55;;;;;;;7.45;1.10;;;17.30;99.90;;;;;;5023540;28;20121;-70
2022/07/07 07:38:21;;;;;;;8.48;1.23;;;17.20;99.90;;;;;;5040897;27;20073;-69
2022/07/07 07:40:47;;;;;;;13.23;1.60;;;17.20;99.90;;;;;;5008976;27;20136;-70
2022/07/07 07:43:13;;;;;;;7.60;1.33;;;17.00;99.90;;;;;;5012446;27;21260;-72
2022/07/07 07:45:39;;;;;;;9.20;1.48;;;17.00;99.90;;;;;;5040537;27;20037;-71
2022/07/07 07:48:05;;;;;;;7.80;1.27;;;17.00;99.90;;;;;;5003629;28;20156;-71
2022/07/07 07:50:31;;;;;;;7.47;1.25;;;17.00;99.90;;;;;;5003272;27;20037;-72
2022/07/07 07:52:58;;;;;;;6.47;1.10;;;17.10;99.90;;;;;;5043264;27;20504;-71
2022/07/07 07:55:24;;;;;;;6.90;1.42;;;17.30;99.90;;;;;;5046225;27;20051;-73
2022/07/07 07:57:51;;;;;;;4.72;1.23;;;17.40;99.90;;;;;;5032827;27;20057;-71
2022/07/07 08:00:20;;;;;;;5.03;0.85;;;17.40;99.90;;;;;;5021497;27;20068;-71
2022/07/07 08:02:47;;;;;;;6.75;1.10;;;17.40;99.90;;;;;;5045584;27;20425;-72
2022/07/07 08:05:16;;;;;;;3.38;0.73;;;17.30;99.90;;;;;;5026175;27;20041;-71
2022/07/07 08:07:43;;;;;;;8.55;1.90;;;17.40;99.90;;;;;;5043102;27;20033;-71
2022/07/07 08:10:13;;;;;;;5.93;1.13;;;17.70;99.90;;;;;;5021083;27;20137;-71
2022/07/07 08:12:40;;;;;;;8.93;1.48;;;18.10;99.90;;;;;;5010094;27;20140;-71
2022/07/07 08:15:06;;;;;;;6.72;1.02;;;18.30;99.90;;;;;;5033053;27;20423;-71
2022/07/07 08:17:33;;;;;;;8.15;1.50;;;18.20;99.90;;;;;;5040668;27;20444;-71
2022/07/07 08:19:59;;;;;;;11.18;1.50;;;18.20;99.90;;;;;;5049195;27;20078;-72
2022/07/07 08:22:25;;;;;;;10.25;2.35;;;18.20;99.90;;;;;;5004777;27;20602;-71
2022/07/07 08:24:51;;;;;;;10.23;1.85;;;18.20;99.90;;;;;;5018031;27;20049;-70
2022/07/07 08:27:16;;;;;;;11.02;1.50;;;18.10;99.90;;;;;;5040442;27;20051;-71
2022/07/07 08:29:42;;;;;;;10.65;1.40;;;17.90;99.90;;;;;;5004687;27;20308;-72
2022/07/07 08:32:14;;;;;;;12.52;1.58;;;17.70;99.90;;;;;;5022405;28;20378;-72
2022/07/07 08:34:41;;;;;;;12.48;1.80;;;17.80;99.90;;;;;;5018415;28;20048;-71
2022/07/07 08:37:07;;;;;;;9.25;1.92;;;18.00;99.90;;;;;;5017369;28;20060;-70
2022/07/07 08:39:33;;;;;;;12.77;1.80;;;18.20;99.90;;;;;;5036146;27;20061;-71
2022/07/07 08:41:59;;;;;;;11.43;2.40;;;18.20;99.90;;;;;;5021304;28;20455;-72
2022/07/07 08:44:26;;;;;;;9.07;2.00;;;18.10;99.90;;;;;;5020610;27;20041;-71
2022/07/07 08:46:52;;;;;;;9.93;2.15;;;18.10;99.90;;;;;;5058762;27;20064;-72
2022/07/07 08:49:18;;;;;;;9.35;1.83;;;18.30;99.90;;;;;;5020218;27;20555;-71
2022/07/07 08:51:45;;;;;;;10.68;2.13;;;18.50;99.90;;;;;;5035652;27;20049;-71
2022/07/07 08:54:12;;;;;;;8.35;1.80;;;18.60;99.90;;;;;;5056390;27;20124;-72
2022/07/07 08:56:39;;;;;;;9.38;2.15;;;18.70;99.90;;;;;;5021272;27;20140;-71
2022/07/07 08:59:07;;;;;;;7.22;1.45;;;18.50;99.90;;;;;;5047874;27;20069;-72
2022/07/07 09:01:33;;;;;;;9.27;1.85;;;18.10;99.90;;;;;;4984773;27;20049;-71
2022/07/07 09:03:59;;;;;;;9.48;1.63;;;17.90;99.90;;;;;;5032669;27;20087;-72
2022/07/07 09:06:25;;;;;;;7.45;1.85;;;17.80;99.90;;;;;;5015474;28;20044;-71
2022/07/07 09:08:51;;;;;;;8.70;2.00;;;17.90;99.90;;;;;;5018168;27;20053;-73
2022/07/07 09:11:27;;;;;;;11.20;2.00;;;18.20;99.90;;;;;;4998012;27;20041;-71
2022/07/07 09:14:08;;;;;;;5.95;1.80;;;18.50;99.90;;;;;;5022517;27;20053;-71
2022/07/07 09:16:36;;;;;;;7.22;1.50;;;18.80;99.90;;;;;;5016660;27;20053;-72
2022/07/07 09:19:02;;;;;;;10.38;1.60;;;18.80;99.90;;;;;;5053209;27;20064;-72
2022/07/07 09:21:32;;;;;;;8.82;1.80;;;18.70;99.90;;;;;;5053199;27;20062;-71
2022/07/07 09:24:00;;;;;;;9.32;2.03;;;18.50;99.90;;;;;;5044996;27;20405;-72
2022/07/07 09:26:34;;;;;;;6.45;1.30;;;18.40;99.90;;;;;;5015544;28;20049;-71
2022/07/07 09:29:00;;;;;;;6.03;1.35;;;18.40;99.90;;;;;;5026779;27;20033;-72
2022/07/07 09:31:46;;;;;;;6.22;1.50;;;18.40;99.90;;;;;;4992612;27;20099;-71
2022/07/07 09:34:12;;;;;;;8.82;1.52;;;18.40;99.90;;;;;;5008258;28;20453;-71
2022/07/07 09:39:22;;;;;;;8.98;1.33;;;18.00;99.90;;;;;;5012890;28;20467;-71
2022/07/07 09:41:48;;;;;;;9.65;1.60;;;17.90;99.90;;;;;;5033489;27;20041;-72
2022/07/07 09:44:13;;;;;;;11.57;2.17;;;18.00;99.90;;;;;;5006006;28;20053;-71
2022/07/07 09:46:39;;;;;;;8.65;1.50;;;18.00;99.90;;;;;;5015307;28;20393;-71
2022/07/07 09:49:09;;;;;;;13.32;2.00;;;18.00;99.90;;;;;;5017925;28;20037;-71
2022/07/07 09:51:35;;;;;;;8.82;1.63;;;18.00;99.90;;;;;;5030239;28;20071;-72
2022/07/07 09:54:05;;;;;;;7.32;1.30;;;17.90;99.90;;;;;;5018512;28;20549;-71
2022/07/07 09:56:39;;;;;;;11.55;2.17;;;17.90;99.90;;;;;;5002152;28;20387;-71
2022/07/07 09:59:08;;;;;;;10.23;1.60;;;17.80;99.90;;;;;;5018617;28;20466;-71
2022/07/07 10:01:36;;;;;;;9.32;1.67;;;17.80;99.90;;;;;;5006678;28;20464;-72
2022/07/07 10:04:05;;;;;;;11.50;2.28;;;17.80;99.90;;;;;;5031869;27;20585;-71
2022/07/07 10:06:32;;;;;;;9.55;1.55;;;17.60;99.90;;;;;;5017379;28;20520;-69
2022/07/07 10:09:05;;;;;;;10.65;1.67;;;17.30;99.90;;;;;;5038564;27;20094;-71
2022/07/07 10:11:37;;;;;;;11.65;1.92;;;17.20;99.90;;;;;;5005204;28;20037;-71
2022/07/07 10:14:14;;;;;;;14.05;1.85;;;17.00;99.90;;;;;;5119328;27;20519;-70
2022/07/07 10:16:41;;;;;;;11.68;2.10;;;17.00;99.90;;;;;;5097710;27;20499;-70
2022/07/07 10:19:10;;;;;;;11.00;2.10;;;17.00;99.90;;;;;;5099284;27;20122;-70
2022/07/07 10:21:36;;;;;;;10.48;1.48;;;17.00;99.90;;;;;;5101885;27;20051;-72
2022/07/07 10:24:04;;;;;;;10.98;1.77;;;16.70;99.90;;;;;;5098663;27;20043;-71
2022/07/07 10:26:41;;;;;;;12.52;2.05;;;16.60;99.90;;;;;;5084998;27;20167;-71
2022/07/07 10:29:10;;;;;;;12.02;2.17;;;16.60;99.90;;;;;;5086047;27;20523;-72
2022/07/07 10:31:37;;;;;;;14.00;2.22;;;16.70;99.90;;;;;;5099000;27;20043;-72
2022/07/07 10:34:05;;;;;;;10.65;1.95;;;16.90;99.90;;;;;;5100129;27;20520;-72
2022/07/07 10:36:46;;;;;;;11.40;2.10;;;17.00;99.90;;;;;;5098522;27;20187;-70
2022/07/07 10:39:25;;;;;;;14.95;2.22;;;17.30;99.90;;;;;;5114683;27;20072;-72
2022/07/07 10:42:09;;;;;;;12.70;1.73;;;17.50;99.90;;;;;;5102932;27;20043;-71
2022/07/07 10:44:38;;;;;;;15.80;2.65;;;17.60;99.90;;;;;;5080818;28;20130;-71
2022/07/07 10:47:25;;;;;;;13.75;2.15;;;17.50;99.90;;;;;;5100432;27;20458;-71
2022/07/07 10:49:53;;;;;;;7.68;1.73;;;17.50;99.90;;;;;;5135347;27;20284;-73
2022/07/07 10:52:21;;;;;;;12.15;2.20;;;17.50;99.90;;;;;;5104006;27;20042;-72
2022/07/07 10:55:01;;;;;;;17.75;2.45;;;17.60;99.90;;;;;;5102723;27;20394;-72
2022/07/07 10:57:29;;;;;;;17.95;2.75;;;17.40;99.90;;;;;;5100341;27;20054;-72
2022/07/07 10:59:59;;;;;;;15.52;2.90;;;17.40;99.90;;;;;;5096371;27;20466;-72
2022/07/07 11:02:32;;;;;;;17.95;3.33;;;17.10;99.90;;;;;;5100551;27;20118;-71
2022/07/07 11:04:59;;;;;;;17.35;2.85;;;17.10;99.90;;;;;;5105174;27;20085;-71
2022/07/07 11:07:26;;;;;;;15.07;3.60;;;17.10;99.90;;;;;;5102272;27;20046;-71
2022/07/07 11:09:56;;;;;;;21.95;3.47;;;17.10;99.90;;;;;;5118837;27;20075;-70
2022/07/07 11:12:41;;;;;;;18.67;2.75;;;17.10;99.90;;;;;;5108836;27;20039;-72
2022/07/07 11:15:22;;;;;;;15.48;2.65;;;17.10;99.90;;;;;;5025914;27;20060;-71
2022/07/07 11:17:57;;;;;;;14.30;3.30;;;17.10;99.90;;;;;;5039601;27;20585;-70
2022/07/07 11:20:29;;;;;;;15.77;2.33;;;17.10;99.90;;;;;;5007615;28;20423;-71
2022/07/07 11:23:07;;;;;;;16.85;3.00;;;17.20;99.90;;;;;;5004879;28;20077;-71
2022/07/07 11:25:34;;;;;;;19.20;2.92;;;17.20;99.90;;;;;;5030651;27;20055;-71
2022/07/07 11:28:00;;;;;;;14.05;3.20;;;17.40;99.90;;;;;;5020977;27;20049;-71
2022/07/07 11:30:26;;;;;;;12.55;2.65;;;17.40;99.90;;;;;;5039869;28;20491;-71
2022/07/07 11:32:56;;;;;;;15.63;2.40;;;17.40;99.90;;;;;;5018207;28;20061;-71
2022/07/07 11:35:22;;;;;;;17.20;2.22;;;17.50;99.90;;;;;;5046765;27;20041;-71
2022/07/07 11:37:48;;;;;;;12.88;2.25;;;17.50;99.90;;;;;;5038728;27;20085;-70
2022/07/07 11:40:14;;;;;;;20.15;3.85;;;17.60;99.90;;;;;;5052385;28;20553;-70
2022/07/07 11:42:43;;;;;;;14.27;2.47;;;17.50;99.90;;;;;;5035885;27;20181;-72
2022/07/07 11:45:20;;;;;;;18.45;3.03;;;17.40;99.90;;;;;;5042612;27;20089;-72
2022/07/07 11:47:47;;;;;;;13.90;2.40;;;17.40;99.90;;;;;;5041358;27;20098;-70
2022/07/07 11:50:12;;;;;;;17.30;2.45;;;17.40;99.90;;;;;;5042059;27;20458;-71
2022/07/07 11:52:38;;;;;;;16.65;2.60;;;17.40;99.90;;;;;;5053550;27;20139;-72
2022/07/07 11:55:05;;;;;;;15.50;2.97;;;17.30;99.90;;;;;;5037188;27;20037;-72
2022/07/07 11:57:33;;;;;;;13.10;2.30;;;17.40;99.90;;;;;;5057446;28;20493;-72
2022/07/07 12:00:13;;;;;;;13.65;3.15;;;17.50;99.90;;;;;;5042754;28;20044;-71
2022/07/07 12:02:39;;;;;;;17.17;2.58;;;17.60;99.90;;;;;;5023563;27;20516;-74
2022/07/07 12:05:06;;;;;;;11.02;2.80;;;17.90;99.90;;;;;;5020955;27;20056;-73
2022/07/07 12:07:32;;;;;;;13.63;2.17;;;18.20;99.90;;;;;;5017613;28;20047;-71
2022/07/07 12:09:58;;;;;;;19.00;3.47;;;18.50;99.90;;;;;;5027196;27;20042;-72
2022/07/07 12:12:24;;;;;;;23.15;3.92;;;18.50;99.90;;;;;;5048607;27;20040;-71
2022/07/07 12:14:50;;;;;;;15.23;2.88;;;18.30;99.90;;;;;;5015524;28;20045;-71
2022/07/07 12:17:34;;;;;;;17.25;2.65;;;18.00;99.90;;;;;;5024912;27;20109;-72
2022/07/07 12:20:00;;;;;;;18.27;3.30;;;17.80;99.90;;;;;;5038848;28;20049;-72
2022/07/07 12:22:33;;;;;;;13.98;2.80;;;17.70;99.90;;;;;;5022020;28;20033;-72
2022/07/07 12:25:08;;;;;;;18.27;3.35;;;17.70;99.90;;;;;;5023525;28;20049;-72
2022/07/07 12:27:34;;;;;;;14.20;2.92;;;17.70;99.90;;;;;;5022791;28;20045;-72
2022/07/07 12:30:02;;;;;;;14.57;2.70;;;17.80;99.90;;;;;;5023560;28;20264;-73
2022/07/07 12:32:28;;;;;;;10.90;2.33;;;17.80;99.90;;;;;;5020502;28;20120;-71
2022/07/07 12:34:53;;;;;;;10.05;2.13;;;17.80;99.90;;;;;;5022747;27;20125;-73
2022/07/07 12:37:19;;;;;;;14.85;2.65;;;17.90;99.90;;;;;;5033199;27;20109;-73
2022/07/07 12:39:50;;;;;;;10.45;2.05;;;18.10;99.90;;;;;;5045362;27;20037;-71
2022/07/07 12:42:25;;;;;;;8.70;1.90;;;18.20;99.90;;;;;;5024440;28;20065;-71
2022/07/07 12:44:51;;;;;;;10.35;2.38;;;18.20;99.90;;;;;;5023461;28;20051;-70